sensor_id;sensor_type;location;lat;lon;timestamp;P1;durP1;ratioP1;P2;durP2;ratioP2
19691;SDS011;42748;50.016;19.890;2023-09-18T00:01:23;18.10;;;10.32;;
19691;SDS011;42748;50.016;19.890;2023-09-18T00:03:50;15.13;;;10.85;;
19691;SDS011;42748;50.016;19.890;2023-09-18T00:06:18;15.32;;;10.32;;
19691;SDS011;42748;50.016;19.890;2023-09-18T00:08:46;16.02;;;10.52;;
19691;SDS011;42748;50.016;19.890;2023-09-18T00:11:14;16.15;;;10.15;;
19691;SDS011;42748;50.016;19.890;2023-09-18T00:13:42;14.30;;;9.82;;
19691;SDS011;42748;50.016;19.890;2023-09-18T00:16:10;14.27;;;10.23;;
19691;SDS011;42748;50.016;19.890;2023-09-18T00:18:39;15.23;;;10.60;;
19691;SDS011;42748;50.016;19.890;2023-09-18T00:21:08;14.30;;;10.70;;
19691;SDS011;42748;50.016;19.890;2023-09-18T00:23:37;13.70;;;9.82;;
19691;SDS011;42748;50.016;19.890;2023-09-18T00:26:04;14.45;;;9.85;;
19691;SDS011;42748;50.016;19.890;2023-09-18T00:28:32;15.73;;;10.32;;
19691;SDS011;42748;50.016;19.890;2023-09-18T00:30:59;15.07;;;10.35;;
19691;SDS011;42748;50.016;19.890;2023-09-18T00:33:27;14.88;;;10.13;;
19691;SDS011;42748;50.016;19.890;2023-09-18T00:35:54;14.05;;;10.23;;
19691;SDS011;42748;50.016;19.890;2023-09-18T00:38:22;12.55;;;9.40;;
19691;SDS011;42748;50.016;19.890;2023-09-18T00:40:49;17.25;;;10.05;;
19691;SDS011;42748;50.016;19.890;2023-09-18T00:43:17;17.90;;;10.15;;
19691;SDS011;42748;50.016;19.890;2023-09-18T00:45:45;15.82;;;10.73;;
19691;SDS011;42748;50.016;19.890;2023-09-18T00:48:14;14.70;;;10.27;;
19691;SDS011;42748;50.016;19.890;2023-09-18T00:50:45;20.08;;;9.85;;
19691;SDS011;42748;50.016;19.890;2023-09-18T00:53:17;14.25;;;10.07;;
19691;SDS011;42748;50.016;19.890;2023-09-18T00:55:45;16.40;;;10.15;;
19691;SDS011;42748;50.016;19.890;2023-09-18T00:58:13;13.73;;;10.15;;
19691;SDS011;42748;50.016;19.890;2023-09-18T01:00:41;13.70;;;9.90;;
19691;SDS011;42748;50.016;19.890;2023-09-18T01:03:09;18.63;;;10.05;;
19691;SDS011;42748;50.016;19.890;2023-09-18T01:05:37;15.68;;;9.65;;
19691;SDS011;42748;50.016;19.890;2023-09-18T01:08:05;15.95;;;10.57;;
19691;SDS011;42748;50.016;19.890;2023-09-18T01:10:35;16.80;;;9.55;;
19691;SDS011;42748;50.016;19.890;2023-09-18T01:15:37;15.35;;;10.07;;
19691;SDS011;42748;50.016;19.890;2023-09-18T01:18:09;14.65;;;10.23;;
19691;SDS011;42748;50.016;19.890;2023-09-18T01:20:37;15.57;;;9.65;;
19691;SDS011;42748;50.016;19.890;2023-09-18T01:23:04;18.42;;;10.95;;
19691;SDS011;42748;50.016;19.890;2023-09-18T01:25:32;17.10;;;10.25;;
19691;SDS011;42748;50.016;19.890;2023-09-18T01:28:01;15.50;;;9.82;;
19691;SDS011;42748;50.016;19.890;2023-09-18T01:30:29;16.35;;;10.50;;
19691;SDS011;42748;50.016;19.890;2023-09-18T01:32:57;15.13;;;10.25;;
19691;SDS011;42748;50.016;19.890;2023-09-18T01:35:26;19.08;;;10.23;;
19691;SDS011;42748;50.016;19.890;2023-09-18T01:37:56;16.58;;;10.63;;
19691;SDS011;42748;50.016;19.890;2023-09-18T01:40:26;14.05;;;10.40;;
19691;SDS011;42748;50.016;19.890;2023-09-18T01:42:53;18.00;;;10.27;;
19691;SDS011;42748;50.016;19.890;2023-09-18T01:45:21;17.42;;;11.50;;
19691;SDS011;42748;50.016;19.890;2023-09-18T01:47:48;16.20;;;10.40;;
19691;SDS011;42748;50.016;19.890;2023-09-18T01:50:17;16.00;;;10.30;;
19691;SDS011;42748;50.016;19.890;2023-09-18T01:52:45;17.13;;;10.52;;
19691;SDS011;42748;50.016;19.890;2023-09-18T01:55:12;16.48;;;11.38;;
19691;SDS011;42748;50.016;19.890;2023-09-18T01:57:41;17.38;;;11.20;;
19691;SDS011;42748;50.016;19.890;2023-09-18T02:00:09;16.48;;;10.00;;
19691;SDS011;42748;50.016;19.890;2023-09-18T02:02:38;16.08;;;10.55;;
19691;SDS011;42748;50.016;19.890;2023-09-18T02:05:21;15.05;;;10.00;;
19691;SDS011;42748;50.016;19.890;2023-09-18T02:07:49;14.43;;;10.05;;
19691;SDS011;42748;50.016;19.890;2023-09-18T02:10:18;18.73;;;11.07;;
19691;SDS011;42748;50.016;19.890;2023-09-18T02:12:46;17.42;;;10.45;;
19691;SDS011;42748;50.016;19.890;2023-09-18T02:15:13;15.23;;;10.32;;
19691;SDS011;42748;50.016;19.890;2023-09-18T02:17:43;15.00;;;10.25;;
19691;SDS011;42748;50.016;19.890;2023-09-18T02:20:12;13.02;;;9.85;;
19691;SDS011;42748;50.016;19.890;2023-09-18T02:22:40;16.27;;;10.68;;
19691;SDS011;42748;50.016;19.890;2023-09-18T02:25:08;14.38;;;10.23;;
19691;SDS011;42748;50.016;19.890;2023-09-18T02:27:35;17.85;;;10.75;;
19691;SDS011;42748;50.016;19.890;2023-09-18T02:30:03;17.48;;;10.55;;
19691;SDS011;42748;50.016;19.890;2023-09-18T02:32:31;15.70;;;10.95;;
19691;SDS011;42748;50.016;19.890;2023-09-18T02:34:59;17.02;;;10.90;;
19691;SDS011;42748;50.016;19.890;2023-09-18T02:37:27;15.85;;;9.57;;
19691;SDS011;42748;50.016;19.890;2023-09-18T02:39:57;14.40;;;9.65;;
19691;SDS011;42748;50.016;19.890;2023-09-18T02:42:25;19.25;;;10.57;;
19691;SDS011;42748;50.016;19.890;2023-09-18T02:44:52;15.88;;;10.38;;
19691;SDS011;42748;50.016;19.890;2023-09-18T02:47:20;14.13;;;9.93;;
19691;SDS011;42748;50.016;19.890;2023-09-18T02:49:48;17.15;;;10.60;;
19691;SDS011;42748;50.016;19.890;2023-09-18T02:52:16;17.88;;;11.85;;
19691;SDS011;42748;50.016;19.890;2023-09-18T02:54:43;18.40;;;11.60;;
19691;SDS011;42748;50.016;19.890;2023-09-18T02:57:11;20.13;;;13.38;;
19691;SDS011;42748;50.016;19.890;2023-09-18T02:59:39;21.75;;;13.20;;
19691;SDS011;42748;50.016;19.890;2023-09-18T03:02:07;20.80;;;14.50;;
19691;SDS011;42748;50.016;19.890;2023-09-18T03:04:35;22.92;;;13.55;;
19691;SDS011;42748;50.016;19.890;2023-09-18T03:07:03;17.17;;;12.30;;
19691;SDS011;42748;50.016;19.890;2023-09-18T03:09:31;20.88;;;13.98;;
19691;SDS011;42748;50.016;19.890;2023-09-18T03:11:59;19.17;;;13.00;;
19691;SDS011;42748;50.016;19.890;2023-09-18T03:14:26;19.55;;;13.07;;
19691;SDS011;42748;50.016;19.890;2023-09-18T03:16:54;20.98;;;13.60;;
19691;SDS011;42748;50.016;19.890;2023-09-18T03:19:22;21.45;;;13.63;;
19691;SDS011;42748;50.016;19.890;2023-09-18T03:21:51;20.27;;;13.43;;
19691;SDS011;42748;50.016;19.890;2023-09-18T03:24:18;20.23;;;13.38;;
19691;SDS011;42748;50.016;19.890;2023-09-18T03:26:46;19.85;;;13.20;;
19691;SDS011;42748;50.016;19.890;2023-09-18T03:29:15;20.58;;;13.30;;
19691;SDS011;42748;50.016;19.890;2023-09-18T03:31:43;19.35;;;13.23;;
19691;SDS011;42748;50.016;19.890;2023-09-18T03:34:11;21.83;;;13.27;;
19691;SDS011;42748;50.016;19.890;2023-09-18T03:36:38;17.88;;;12.85;;
19691;SDS011;42748;50.016;19.890;2023-09-18T03:39:06;22.00;;;13.18;;
19691;SDS011;42748;50.016;19.890;2023-09-18T03:41:33;20.02;;;13.35;;
19691;SDS011;42748;50.016;19.890;2023-09-18T03:44:02;20.30;;;13.48;;
19691;SDS011;42748;50.016;19.890;2023-09-18T03:46:29;19.48;;;13.05;;
19691;SDS011;42748;50.016;19.890;2023-09-18T03:48:57;18.70;;;12.70;;
19691;SDS011;42748;50.016;19.890;2023-09-18T03:51:25;17.35;;;12.43;;
19691;SDS011;42748;50.016;19.890;2023-09-18T03:53:52;18.92;;;12.85;;
19691;SDS011;42748;50.016;19.890;2023-09-18T03:56:19;18.42;;;13.68;;
19691;SDS011;42748;50.016;19.890;2023-09-18T03:58:48;18.55;;;12.77;;
19691;SDS011;42748;50.016;19.890;2023-09-18T04:01:16;20.13;;;12.98;;
19691;SDS011;42748;50.016;19.890;2023-09-18T04:03:45;21.95;;;13.77;;
19691;SDS011;42748;50.016;19.890;2023-09-18T04:06:12;23.60;;;13.88;;
19691;SDS011;42748;50.016;19.890;2023-09-18T04:08:40;20.02;;;13.30;;
19691;SDS011;42748;50.016;19.890;2023-09-18T04:11:07;22.48;;;13.50;;
19691;SDS011;42748;50.016;19.890;2023-09-18T04:13:36;20.15;;;12.70;;
19691;SDS011;42748;50.016;19.890;2023-09-18T04:16:04;20.48;;;13.18;;
19691;SDS011;42748;50.016;19.890;2023-09-18T04:18:32;18.02;;;13.07;;
19691;SDS011;42748;50.016;19.890;2023-09-18T04:20:59;21.23;;;13.88;;
19691;SDS011;42748;50.016;19.890;2023-09-18T04:23:27;21.67;;;13.07;;
19691;SDS011;42748;50.016;19.890;2023-09-18T04:25:55;19.63;;;13.90;;
19691;SDS011;42748;50.016;19.890;2023-09-18T04:28:25;20.50;;;14.05;;
19691;SDS011;42748;50.016;19.890;2023-09-18T04:30:54;23.77;;;13.27;;
19691;SDS011;42748;50.016;19.890;2023-09-18T04:33:23;20.45;;;13.18;;
19691;SDS011;42748;50.016;19.890;2023-09-18T04:35:52;20.63;;;13.55;;
19691;SDS011;42748;50.016;19.890;2023-09-18T04:38:20;20.73;;;13.27;;
19691;SDS011;42748;50.016;19.890;2023-09-18T04:40:48;22.13;;;15.35;;
19691;SDS011;42748;50.016;19.890;2023-09-18T04:43:15;21.85;;;15.30;;
19691;SDS011;42748;50.016;19.890;2023-09-18T04:45:44;25.00;;;15.02;;
19691;SDS011;42748;50.016;19.890;2023-09-18T04:48:13;22.88;;;14.25;;
19691;SDS011;42748;50.016;19.890;2023-09-18T04:50:41;28.52;;;15.00;;
19691;SDS011;42748;50.016;19.890;2023-09-18T04:53:08;25.83;;;15.88;;
19691;SDS011;42748;50.016;19.890;2023-09-18T04:55:36;21.48;;;14.40;;
19691;SDS011;42748;50.016;19.890;2023-09-18T04:58:05;23.90;;;14.77;;
19691;SDS011;42748;50.016;19.890;2023-09-18T05:00:33;28.10;;;15.43;;
19691;SDS011;42748;50.016;19.890;2023-09-18T05:03:01;23.02;;;14.88;;
19691;SDS011;42748;50.016;19.890;2023-09-18T05:05:30;25.27;;;14.32;;
19691;SDS011;42748;50.016;19.890;2023-09-18T05:07:57;24.77;;;14.40;;
19691;SDS011;42748;50.016;19.890;2023-09-18T05:10:25;32.35;;;15.30;;
19691;SDS011;42748;50.016;19.890;2023-09-18T05:12:52;27.15;;;15.50;;
19691;SDS011;42748;50.016;19.890;2023-09-18T05:15:25;24.33;;;14.52;;
19691;SDS011;42748;50.016;19.890;2023-09-18T05:17:56;23.55;;;14.60;;
19691;SDS011;42748;50.016;19.890;2023-09-18T05:20:25;20.85;;;13.77;;
19691;SDS011;42748;50.016;19.890;2023-09-18T05:22:53;27.73;;;15.10;;
19691;SDS011;42748;50.016;19.890;2023-09-18T05:25:21;22.77;;;14.60;;
19691;SDS011;42748;50.016;19.890;2023-09-18T05:27:49;27.88;;;17.00;;
19691;SDS011;42748;50.016;19.890;2023-09-18T05:30:26;26.17;;;16.42;;
19691;SDS011;42748;50.016;19.890;2023-09-18T05:33:02;26.40;;;16.83;;
19691;SDS011;42748;50.016;19.890;2023-09-18T05:35:34;29.77;;;17.88;;
19691;SDS011;42748;50.016;19.890;2023-09-18T05:38:06;35.00;;;19.20;;
19691;SDS011;42748;50.016;19.890;2023-09-18T05:40:33;32.50;;;17.42;;
19691;SDS011;42748;50.016;19.890;2023-09-18T05:43:01;25.33;;;16.77;;
19691;SDS011;42748;50.016;19.890;2023-09-18T05:45:28;23.65;;;15.60;;
19691;SDS011;42748;50.016;19.890;2023-09-18T05:47:57;22.98;;;15.50;;
19691;SDS011;42748;50.016;19.890;2023-09-18T05:50:31;28.27;;;14.52;;
19691;SDS011;42748;50.016;19.890;2023-09-18T05:52:59;23.50;;;14.90;;
19691;SDS011;42748;50.016;19.890;2023-09-18T05:55:27;22.73;;;14.38;;
19691;SDS011;42748;50.016;19.890;2023-09-18T05:57:54;25.67;;;13.52;;
19691;SDS011;42748;50.016;19.890;2023-09-18T06:00:23;22.80;;;13.40;;
19691;SDS011;42748;50.016;19.890;2023-09-18T06:02:52;20.80;;;13.35;;
19691;SDS011;42748;50.016;19.890;2023-09-18T06:05:20;23.60;;;13.57;;
19691;SDS011;42748;50.016;19.890;2023-09-18T06:07:48;27.27;;;13.68;;
19691;SDS011;42748;50.016;19.890;2023-09-18T06:10:17;26.92;;;15.05;;
19691;SDS011;42748;50.016;19.890;2023-09-18T06:12:44;23.50;;;14.27;;
19691;SDS011;42748;50.016;19.890;2023-09-18T06:15:12;26.38;;;14.32;;
19691;SDS011;42748;50.016;19.890;2023-09-18T06:17:42;24.65;;;14.00;;
19691;SDS011;42748;50.016;19.890;2023-09-18T06:20:11;24.73;;;13.85;;
19691;SDS011;42748;50.016;19.890;2023-09-18T06:22:43;26.27;;;14.93;;
19691;SDS011;42748;50.016;19.890;2023-09-18T06:25:10;24.05;;;14.55;;
19691;SDS011;42748;50.016;19.890;2023-09-18T06:27:38;31.52;;;15.45;;
19691;SDS011;42748;50.016;19.890;2023-09-18T06:30:06;24.48;;;15.23;;
19691;SDS011;42748;50.016;19.890;2023-09-18T06:32:33;28.75;;;15.32;;
19691;SDS011;42748;50.016;19.890;2023-09-18T06:35:04;33.22;;;15.15;;
19691;SDS011;42748;50.016;19.890;2023-09-18T06:37:31;26.02;;;14.80;;
19691;SDS011;42748;50.016;19.890;2023-09-18T06:39:59;34.00;;;15.02;;
19691;SDS011;42748;50.016;19.890;2023-09-18T06:42:31;22.42;;;14.75;;
19691;SDS011;42748;50.016;19.890;2023-09-18T06:45:00;27.80;;;15.18;;
19691;SDS011;42748;50.016;19.890;2023-09-18T06:47:28;24.85;;;14.07;;
19691;SDS011;42748;50.016;19.890;2023-09-18T06:49:55;23.42;;;13.75;;
19691;SDS011;42748;50.016;19.890;2023-09-18T06:52:24;21.60;;;13.98;;
19691;SDS011;42748;50.016;19.890;2023-09-18T06:54:53;18.83;;;12.95;;
19691;SDS011;42748;50.016;19.890;2023-09-18T06:57:20;21.40;;;13.18;;
19691;SDS011;42748;50.016;19.890;2023-09-18T06:59:48;18.73;;;12.82;;
19691;SDS011;42748;50.016;19.890;2023-09-18T07:02:15;21.25;;;12.48;;
19691;SDS011;42748;50.016;19.890;2023-09-18T07:04:43;20.55;;;13.40;;
19691;SDS011;42748;50.016;19.890;2023-09-18T07:07:13;20.63;;;13.65;;
19691;SDS011;42748;50.016;19.890;2023-09-18T07:09:40;17.95;;;13.10;;
19691;SDS011;42748;50.016;19.890;2023-09-18T07:12:28;21.02;;;12.93;;
19691;SDS011;42748;50.016;19.890;2023-09-18T07:14:56;20.45;;;12.82;;
19691;SDS011;42748;50.016;19.890;2023-09-18T07:17:23;21.60;;;13.50;;
19691;SDS011;42748;50.016;19.890;2023-09-18T07:19:51;19.42;;;12.73;;
19691;SDS011;42748;50.016;19.890;2023-09-18T07:22:18;18.65;;;12.77;;
19691;SDS011;42748;50.016;19.890;2023-09-18T07:24:45;25.42;;;13.23;;
19691;SDS011;42748;50.016;19.890;2023-09-18T07:27:13;20.83;;;12.43;;
19691;SDS011;42748;50.016;19.890;2023-09-18T07:29:41;20.35;;;13.07;;
19691;SDS011;42748;50.016;19.890;2023-09-18T07:32:09;14.13;;;11.40;;
19691;SDS011;42748;50.016;19.890;2023-09-18T07:34:37;17.90;;;12.05;;
19691;SDS011;42748;50.016;19.890;2023-09-18T07:37:04;18.02;;;11.70;;
19691;SDS011;42748;50.016;19.890;2023-09-18T07:39:32;14.18;;;11.40;;
19691;SDS011;42748;50.016;19.890;2023-09-18T07:42:00;15.15;;;11.18;;
19691;SDS011;42748;50.016;19.890;2023-09-18T07:44:27;12.77;;;11.48;;
19691;SDS011;42748;50.016;19.890;2023-09-18T07:46:55;12.45;;;11.10;;
19691;SDS011;42748;50.016;19.890;2023-09-18T07:49:22;16.02;;;12.02;;
19691;SDS011;42748;50.016;19.890;2023-09-18T07:51:50;14.25;;;11.00;;
19691;SDS011;42748;50.016;19.890;2023-09-18T07:54:17;12.90;;;11.50;;
19691;SDS011;42748;50.016;19.890;2023-09-18T07:56:45;12.95;;;11.60;;
19691;SDS011;42748;50.016;19.890;2023-09-18T07:59:12;12.45;;;11.15;;
19691;SDS011;42748;50.016;19.890;2023-09-18T08:01:41;13.30;;;10.95;;
19691;SDS011;42748;50.016;19.890;2023-09-18T08:04:08;14.85;;;11.35;;
19691;SDS011;42748;50.016;19.890;2023-09-18T08:06:36;14.48;;;10.98;;
19691;SDS011;42748;50.016;19.890;2023-09-18T08:09:04;12.45;;;10.90;;
19691;SDS011;42748;50.016;19.890;2023-09-18T08:11:32;13.20;;;11.77;;
19691;SDS011;42748;50.016;19.890;2023-09-18T08:13:59;12.55;;;11.00;;
19691;SDS011;42748;50.016;19.890;2023-09-18T08:16:27;12.90;;;11.18;;
19691;SDS011;42748;50.016;19.890;2023-09-18T08:18:56;12.63;;;11.20;;
19691;SDS011;42748;50.016;19.890;2023-09-18T08:21:23;14.88;;;11.80;;
19691;SDS011;42748;50.016;19.890;2023-09-18T08:23:51;11.85;;;10.65;;
19691;SDS011;42748;50.016;19.890;2023-09-18T08:26:18;13.02;;;11.57;;
19691;SDS011;42748;50.016;19.890;2023-09-18T08:28:46;12.50;;;11.20;;
19691;SDS011;42748;50.016;19.890;2023-09-18T08:31:13;14.25;;;11.82;;
19691;SDS011;42748;50.016;19.890;2023-09-18T08:33:43;13.00;;;11.68;;
19691;SDS011;42748;50.016;19.890;2023-09-18T08:36:10;12.68;;;11.38;;
19691;SDS011;42748;50.016;19.890;2023-09-18T08:38:38;11.88;;;10.57;;
19691;SDS011;42748;50.016;19.890;2023-09-18T08:41:06;12.80;;;11.07;;
19691;SDS011;42748;50.016;19.890;2023-09-18T08:43:35;12.93;;;11.43;;
19691;SDS011;42748;50.016;19.890;2023-09-18T08:46:04;12.80;;;11.40;;
19691;SDS011;42748;50.016;19.890;2023-09-18T08:48:32;13.32;;;10.32;;
19691;SDS011;42748;50.016;19.890;2023-09-18T08:51:05;12.63;;;11.25;;
19691;SDS011;42748;50.016;19.890;2023-09-18T08:53:35;12.07;;;10.88;;
19691;SDS011;42748;50.016;19.890;2023-09-18T08:56:04;11.75;;;10.43;;
19691;SDS011;42748;50.016;19.890;2023-09-18T08:58:32;13.55;;;11.63;;
19691;SDS011;42748;50.016;19.890;2023-09-18T09:01:02;13.45;;;11.65;;
19691;SDS011;42748;50.016;19.890;2023-09-18T09:03:30;12.55;;;11.25;;
19691;SDS011;42748;50.016;19.890;2023-09-18T09:05:58;12.93;;;11.60;;
19691;SDS011;42748;50.016;19.890;2023-09-18T09:08:28;13.48;;;11.50;;
19691;SDS011;42748;50.016;19.890;2023-09-18T09:10:55;15.15;;;11.85;;
19691;SDS011;42748;50.016;19.890;2023-09-18T09:13:24;15.25;;;11.75;;
19691;SDS011;42748;50.016;19.890;2023-09-18T09:16:06;12.18;;;10.88;;
19691;SDS011;42748;50.016;19.890;2023-09-18T09:18:46;13.43;;;11.45;;
19691;SDS011;42748;50.016;19.890;2023-09-18T09:21:14;13.88;;;12.38;;
19691;SDS011;42748;50.016;19.890;2023-09-18T09:26:19;14.65;;;13.05;;
19691;SDS011;42748;50.016;19.890;2023-09-18T09:28:47;16.15;;;12.18;;
19691;SDS011;42748;50.016;19.890;2023-09-18T09:31:23;15.43;;;13.55;;
19691;SDS011;42748;50.016;19.890;2023-09-18T09:33:51;15.80;;;12.80;;
19691;SDS011;42748;50.016;19.890;2023-09-18T09:36:20;15.25;;;12.57;;
19691;SDS011;42748;50.016;19.890;2023-09-18T09:38:48;15.70;;;12.63;;
19691;SDS011;42748;50.016;19.890;2023-09-18T09:41:16;16.60;;;13.85;;
19691;SDS011;42748;50.016;19.890;2023-09-18T09:43:44;14.95;;;12.55;;
19691;SDS011;42748;50.016;19.890;2023-09-18T09:46:14;16.98;;;12.50;;
19691;SDS011;42748;50.016;19.890;2023-09-18T09:49:03;13.80;;;11.88;;
19691;SDS011;42748;50.016;19.890;2023-09-18T09:51:32;14.32;;;12.40;;
19691;SDS011;42748;50.016;19.890;2023-09-18T09:54:00;16.10;;;12.68;;
19691;SDS011;42748;50.016;19.890;2023-09-18T09:57:02;15.63;;;11.98;;
19691;SDS011;42748;50.016;19.890;2023-09-18T09:59:23;14.32;;;12.10;;
19691;SDS011;42748;50.016;19.890;2023-09-18T10:01:51;14.05;;;11.15;;
19691;SDS011;42748;50.016;19.890;2023-09-18T10:04:20;14.55;;;11.50;;
19691;SDS011;42748;50.016;19.890;2023-09-18T10:06:52;13.27;;;10.55;;
19691;SDS011;42748;50.016;19.890;2023-09-18T10:09:22;13.32;;;11.30;;
19691;SDS011;42748;50.016;19.890;2023-09-18T10:11:52;15.73;;;11.77;;
19691;SDS011;42748;50.016;19.890;2023-09-18T10:14:20;17.42;;;12.10;;
19691;SDS011;42748;50.016;19.890;2023-09-18T10:16:53;14.18;;;12.02;;
19691;SDS011;42748;50.016;19.890;2023-09-18T10:19:27;17.20;;;12.10;;
19691;SDS011;42748;50.016;19.890;2023-09-18T10:24:42;13.63;;;11.63;;
19691;SDS011;42748;50.016;19.890;2023-09-18T10:27:14;14.23;;;11.98;;
19691;SDS011;42748;50.016;19.890;2023-09-18T10:29:41;13.98;;;11.88;;
19691;SDS011;42748;50.016;19.890;2023-09-18T10:32:11;14.32;;;11.60;;
19691;SDS011;42748;50.016;19.890;2023-09-18T10:34:38;15.25;;;11.40;;
19691;SDS011;42748;50.016;19.890;2023-09-18T10:37:06;14.52;;;11.60;;
19691;SDS011;42748;50.016;19.890;2023-09-18T10:39:36;13.55;;;10.85;;
19691;SDS011;42748;50.016;19.890;2023-09-18T10:42:04;14.70;;;11.32;;
19691;SDS011;42748;50.016;19.890;2023-09-18T10:44:34;14.18;;;11.65;;
19691;SDS011;42748;50.016;19.890;2023-09-18T10:47:03;14.43;;;11.57;;
19691;SDS011;42748;50.016;19.890;2023-09-18T10:49:33;14.32;;;10.80;;
19691;SDS011;42748;50.016;19.890;2023-09-18T10:52:02;15.18;;;11.05;;
19691;SDS011;42748;50.016;19.890;2023-09-18T10:54:30;13.52;;;11.38;;
19691;SDS011;42748;50.016;19.890;2023-09-18T10:56:59;12.98;;;11.02;;
19691;SDS011;42748;50.016;19.890;2023-09-18T10:59:28;15.20;;;10.38;;
19691;SDS011;42748;50.016;19.890;2023-09-18T11:02:03;13.45;;;10.52;;
19691;SDS011;42748;50.016;19.890;2023-09-18T11:04:33;17.42;;;11.13;;
19691;SDS011;42748;50.016;19.890;2023-09-18T11:07:03;14.82;;;10.88;;
19691;SDS011;42748;50.016;19.890;2023-09-18T11:09:32;11.73;;;10.52;;
19691;SDS011;42748;50.016;19.890;2023-09-18T11:12:08;12.07;;;10.13;;
19691;SDS011;42748;50.016;19.890;2023-09-18T11:22:36;12.85;;;10.38;;
19691;SDS011;42748;50.016;19.890;2023-09-18T11:27:54;13.23;;;10.23;;
19691;SDS011;42748;50.016;19.890;2023-09-18T11:30:25;12.32;;;10.23;;
19691;SDS011;42748;50.016;19.890;2023-09-18T11:32:53;16.20;;;10.18;;
19691;SDS011;42748;50.016;19.890;2023-09-18T11:35:22;12.38;;;10.23;;
19691;SDS011;42748;50.016;19.890;2023-09-18T11:38:02;12.23;;;10.68;;
19691;SDS011;42748;50.016;19.890;2023-09-18T11:40:33;14.13;;;10.18;;
19691;SDS011;42748;50.016;19.890;2023-09-18T11:43:20;10.48;;;9.38;;
19691;SDS011;42748;50.016;19.890;2023-09-18T11:45:58;10.57;;;9.35;;
19691;SDS011;42748;50.016;19.890;2023-09-18T11:48:27;11.88;;;9.57;;
19691;SDS011;42748;50.016;19.890;2023-09-18T11:50:57;12.35;;;9.85;;
19691;SDS011;42748;50.016;19.890;2023-09-18T11:53:26;12.18;;;10.05;;
19691;SDS011;42748;50.016;19.890;2023-09-18T11:55:54;12.68;;;10.40;;
19691;SDS011;42748;50.016;19.890;2023-09-18T11:58:22;12.57;;;9.57;;
19691;SDS011;42748;50.016;19.890;2023-09-18T12:00:50;11.65;;;9.88;;
19691;SDS011;42748;50.016;19.890;2023-09-18T12:03:19;13.65;;;10.40;;
19691;SDS011;42748;50.016;19.890;2023-09-18T12:05:54;13.00;;;9.63;;
19691;SDS011;42748;50.016;19.890;2023-09-18T12:08:23;12.38;;;10.07;;
19691;SDS011;42748;50.016;19.890;2023-09-18T12:10:54;13.85;;;9.65;;
19691;SDS011;42748;50.016;19.890;2023-09-18T12:13:24;13.10;;;9.82;;
19691;SDS011;42748;50.016;19.890;2023-09-18T12:15:56;14.63;;;9.90;;
19691;SDS011;42748;50.016;19.890;2023-09-18T12:18:25;11.75;;;10.15;;
19691;SDS011;42748;50.016;19.890;2023-09-18T12:20:56;12.52;;;9.55;;
19691;SDS011;42748;50.016;19.890;2023-09-18T12:23:25;13.73;;;10.18;;
19691;SDS011;42748;50.016;19.890;2023-09-18T12:25:58;11.77;;;10.20;;
19691;SDS011;42748;50.016;19.890;2023-09-18T12:28:26;10.77;;;9.48;;
19691;SDS011;42748;50.016;19.890;2023-09-18T12:30:58;10.82;;;9.65;;
19691;SDS011;42748;50.016;19.890;2023-09-18T12:33:36;12.60;;;9.43;;
19691;SDS011;42748;50.016;19.890;2023-09-18T12:36:04;11.93;;;9.50;;
19691;SDS011;42748;50.016;19.890;2023-09-18T12:38:34;14.27;;;10.13;;
19691;SDS011;42748;50.016;19.890;2023-09-18T12:41:03;13.38;;;10.10;;
19691;SDS011;42748;50.016;19.890;2023-09-18T12:43:39;12.68;;;9.93;;
19691;SDS011;42748;50.016;19.890;2023-09-18T12:46:10;14.13;;;10.88;;
19691;SDS011;42748;50.016;19.890;2023-09-18T12:48:38;12.88;;;10.15;;
19691;SDS011;42748;50.016;19.890;2023-09-18T12:51:12;14.07;;;10.38;;
19691;SDS011;42748;50.016;19.890;2023-09-18T12:53:41;14.30;;;10.63;;
19691;SDS011;42748;50.016;19.890;2023-09-18T12:56:09;14.80;;;10.15;;
19691;SDS011;42748;50.016;19.890;2023-09-18T12:58:37;14.18;;;9.85;;
19691;SDS011;42748;50.016;19.890;2023-09-18T13:01:25;15.50;;;9.77;;
19691;SDS011;42748;50.016;19.890;2023-09-18T13:03:53;13.40;;;9.70;;
19691;SDS011;42748;50.016;19.890;2023-09-18T13:06:26;13.10;;;9.35;;
19691;SDS011;42748;50.016;19.890;2023-09-18T13:08:54;11.95;;;9.52;;
19691;SDS011;42748;50.016;19.890;2023-09-18T13:11:22;11.95;;;9.25;;
19691;SDS011;42748;50.016;19.890;2023-09-18T13:13:56;11.20;;;9.18;;
19691;SDS011;42748;50.016;19.890;2023-09-18T13:16:25;13.18;;;9.07;;
19691;SDS011;42748;50.016;19.890;2023-09-18T13:18:52;9.38;;;8.35;;
19691;SDS011;42748;50.016;19.890;2023-09-18T13:21:20;9.88;;;7.72;;
19691;SDS011;42748;50.016;19.890;2023-09-18T13:23:47;11.48;;;6.97;;
19691;SDS011;42748;50.016;19.890;2023-09-18T13:26:15;8.18;;;6.78;;
19691;SDS011;42748;50.016;19.890;2023-09-18T13:28:43;10.82;;;7.45;;
19691;SDS011;42748;50.016;19.890;2023-09-18T13:31:10;9.73;;;7.78;;
19691;SDS011;42748;50.016;19.890;2023-09-18T13:33:38;8.45;;;7.28;;
19691;SDS011;42748;50.016;19.890;2023-09-18T13:36:07;10.27;;;7.85;;
19691;SDS011;42748;50.016;19.890;2023-09-18T13:38:35;11.13;;;7.43;;
19691;SDS011;42748;50.016;19.890;2023-09-18T13:41:02;10.02;;;7.55;;
19691;SDS011;42748;50.016;19.890;2023-09-18T13:43:32;9.75;;;7.57;;
19691;SDS011;42748;50.016;19.890;2023-09-18T13:46:02;12.07;;;7.43;;
19691;SDS011;42748;50.016;19.890;2023-09-18T13:48:31;10.07;;;7.18;;
19691;SDS011;42748;50.016;19.890;2023-09-18T13:51:02;10.75;;;7.82;;
19691;SDS011;42748;50.016;19.890;2023-09-18T13:53:30;12.05;;;7.60;;
19691;SDS011;42748;50.016;19.890;2023-09-18T13:55:58;9.30;;;7.05;;
19691;SDS011;42748;50.016;19.890;2023-09-18T13:58:29;9.57;;;7.32;;
19691;SDS011;42748;50.016;19.890;2023-09-18T14:00:59;10.38;;;7.45;;
19691;SDS011;42748;50.016;19.890;2023-09-18T14:03:27;9.65;;;7.47;;
19691;SDS011;42748;50.016;19.890;2023-09-18T14:05:57;9.80;;;7.60;;
19691;SDS011;42748;50.016;19.890;2023-09-18T14:08:25;12.32;;;6.90;;
19691;SDS011;42748;50.016;19.890;2023-09-18T14:10:53;11.45;;;7.65;;
19691;SDS011;42748;50.016;19.890;2023-09-18T14:13:20;9.63;;;7.15;;
19691;SDS011;42748;50.016;19.890;2023-09-18T14:15:48;9.13;;;7.28;;
19691;SDS011;42748;50.016;19.890;2023-09-18T14:18:18;9.80;;;7.82;;
19691;SDS011;42748;50.016;19.890;2023-09-18T14:20:45;9.95;;;7.40;;
19691;SDS011;42748;50.016;19.890;2023-09-18T14:23:13;10.15;;;7.07;;
19691;SDS011;42748;50.016;19.890;2023-09-18T14:25:41;10.57;;;7.90;;
19691;SDS011;42748;50.016;19.890;2023-09-18T14:28:08;9.52;;;7.05;;
19691;SDS011;42748;50.016;19.890;2023-09-18T14:30:36;12.48;;;7.15;;
19691;SDS011;42748;50.016;19.890;2023-09-18T14:33:04;10.30;;;6.88;;
19691;SDS011;42748;50.016;19.890;2023-09-18T14:35:31;10.63;;;6.95;;
19691;SDS011;42748;50.016;19.890;2023-09-18T14:37:59;9.88;;;7.20;;
19691;SDS011;42748;50.016;19.890;2023-09-18T14:40:26;9.63;;;7.35;;